THY1990 LTFM-LTFH
Flight info
| Callsign | THY1990 |
|---|---|
| Flight time | 1h 22m |
| Altitude | 33000 |
| Route | EKAWE1D/35L EKAWE UT641 ABSAX UN743 GAKSU UT310 SIN UW704 CRM STAR LTFH |
| Aircraft | B738/M-VGDW/C |
Departure
| Time | 2026-05-07 13:30 |
|---|---|
| Airport | İstanbul Airport (LTFM) |
Arrival
| Time | 2026-05-07 14:52 |
|---|---|
| Airport | Samsun-Çarşamba Airport (LTFH) |
| Time | Latitude | Longitude | Altitude | Speed | Heading |
|---|---|---|---|---|---|
| 2026-05-07 13:14 | 41.25689 | 28.73606 | 333 ft | 0 kts | 359° |
| 2026-05-07 13:24 | 41.25687 | 28.73606 | 333 ft | 1 kts | 359° |
| 2026-05-07 13:24 | 41.25671 | 28.73606 | 333 ft | 3 kts | 359° |
| 2026-05-07 13:24 | 41.25652 | 28.73606 | 333 ft | 2 kts | 359° |
| 2026-05-07 13:24 | 41.25654 | 28.73606 | 333 ft | 2 kts | 355° |
| 2026-05-07 13:25 | 41.25660 | 28.73559 | 333 ft | 9 kts | 208° |
| 2026-05-07 13:25 | 41.25637 | 28.73531 | 333 ft | 2 kts | 267° |
| 2026-05-07 13:26 | 41.25637 | 28.73528 | 333 ft | 2 kts | 268° |
| 2026-05-07 13:26 | 41.25635 | 28.73465 | 333 ft | 12 kts | 268° |
| 2026-05-07 13:26 | 41.25632 | 28.73353 | 333 ft | 15 kts | 268° |
| 2026-05-07 13:26 | 41.25696 | 28.73245 | 333 ft | 19 kts | 0° |
| 2026-05-07 13:27 | 41.25851 | 28.73242 | 333 ft | 25 kts | 359° |
| 2026-05-07 13:27 | 41.26033 | 28.73237 | 333 ft | 28 kts | 359° |
| 2026-05-07 13:27 | 41.26183 | 28.73229 | 333 ft | 13 kts | 334° |
| 2026-05-07 13:27 | 41.26250 | 28.73151 | 333 ft | 1 kts | 310° |
| 2026-05-07 13:28 | 41.26262 | 28.73110 | 333 ft | 8 kts | 304° |
| 2026-05-07 13:28 | 41.26320 | 28.73087 | 333 ft | 0 kts | 349° |
| 2026-05-07 13:28 | 41.26329 | 28.73084 | 333 ft | 5 kts | 349° |
| 2026-05-07 13:28 | 41.26379 | 28.73056 | 333 ft | 9 kts | 299° |
| 2026-05-07 13:29 | 41.26400 | 28.72941 | 333 ft | 12 kts | 272° |
| 2026-05-07 13:29 | 41.26410 | 28.72806 | 333 ft | 18 kts | 284° |
| 2026-05-07 13:29 | 41.26635 | 28.72754 | 333 ft | 75 kts | 359° |
| 2026-05-07 13:29 | 41.27452 | 28.72747 | 333 ft | 157 kts | 359° |
| 2026-05-07 13:30 | 41.28719 | 28.72729 | 635 ft | 190 kts | 359° |
| 2026-05-07 13:30 | 41.29991 | 28.72751 | 927 ft | 180 kts | 2° |
| 2026-05-07 13:30 | 41.31201 | 28.72800 | 1415 ft | 170 kts | 358° |
| 2026-05-07 13:30 | 41.32374 | 28.72724 | 2021 ft | 168 kts | 358° |
| 2026-05-07 13:31 | 41.33551 | 28.72688 | 2648 ft | 171 kts | 359° |
| 2026-05-07 13:31 | 41.34759 | 28.72649 | 3286 ft | 176 kts | 358° |
| 2026-05-07 13:31 | 41.36003 | 28.72608 | 3931 ft | 181 kts | 358° |
| 2026-05-07 13:31 | 41.37275 | 28.72564 | 4573 ft | 185 kts | 356° |
| 2026-05-07 13:32 | 41.38551 | 28.72277 | 5206 ft | 187 kts | 342° |
| 2026-05-07 13:32 | 41.39768 | 28.71655 | 5844 ft | 191 kts | 333° |
| 2026-05-07 13:32 | 41.41002 | 28.70878 | 6444 ft | 203 kts | 329° |
| 2026-05-07 13:32 | 41.42310 | 28.70018 | 7073 ft | 216 kts | 329° |
| 2026-05-07 13:33 | 41.43700 | 28.69109 | 7719 ft | 230 kts | 329° |
| 2026-05-07 13:33 | 41.45159 | 28.68159 | 8354 ft | 242 kts | 330° |
| 2026-05-07 13:33 | 41.46698 | 28.67162 | 8988 ft | 248 kts | 330° |
| 2026-05-07 13:33 | 41.48263 | 28.66150 | 9615 ft | 253 kts | 330° |
| 2026-05-07 13:34 | 41.49863 | 28.65119 | 10245 ft | 256 kts | 330° |
| 2026-05-07 13:34 | 41.53260 | 28.62935 | 11257 ft | 290 kts | 330° |
| 2026-05-07 13:34 | 41.55233 | 28.61998 | 11641 ft | 317 kts | 346° |
| 2026-05-07 13:35 | 41.57523 | 28.62028 | 12066 ft | 342 kts | 7° |
| 2026-05-07 13:35 | 41.59794 | 28.63186 | 12747 ft | 358 kts | 27° |
| 2026-05-07 13:35 | 41.61730 | 28.65341 | 13452 ft | 370 kts | 46° |
| 2026-05-07 13:35 | 41.63122 | 28.68244 | 13856 ft | 376 kts | 64° |
| 2026-05-07 13:36 | 41.63944 | 28.71575 | 13991 ft | 378 kts | 73° |
| 2026-05-07 13:36 | 41.64788 | 28.74896 | 13992 ft | 377 kts | 65° |
| 2026-05-07 13:36 | 41.65995 | 28.77993 | 13997 ft | 375 kts | 57° |
| 2026-05-07 13:36 | 41.67420 | 28.80917 | 13997 ft | 374 kts | 53° |
| 2026-05-07 13:37 | 41.68845 | 28.83776 | 13997 ft | 374 kts | 54° |
| 2026-05-07 13:37 | 41.70264 | 28.86698 | 13997 ft | 374 kts | 55° |
| 2026-05-07 13:37 | 41.71671 | 28.89622 | 13997 ft | 374 kts | 55° |
| 2026-05-07 13:37 | 41.73075 | 28.92572 | 13998 ft | 375 kts | 57° |
| 2026-05-07 13:38 | 41.74343 | 28.95672 | 14431 ft | 382 kts | 62° |
| 2026-05-07 13:38 | 41.75494 | 28.98886 | 15348 ft | 383 kts | 64° |
| 2026-05-07 13:38 | 41.76587 | 29.02153 | 16118 ft | 387 kts | 64° |
| 2026-05-07 13:38 | 41.77697 | 29.05462 | 16844 ft | 391 kts | 64° |
| 2026-05-07 13:39 | 41.78835 | 29.08790 | 17553 ft | 395 kts | 64° |
| 2026-05-07 13:39 | 41.79987 | 29.12156 | 18241 ft | 400 kts | 64° |
| 2026-05-07 13:39 | 41.81148 | 29.15551 | 18916 ft | 404 kts | 64° |
| 2026-05-07 13:39 | 41.82325 | 29.18998 | 19575 ft | 408 kts | 64° |
| 2026-05-07 13:40 | 41.83508 | 29.22464 | 20215 ft | 412 kts | 64° |
| 2026-05-07 13:40 | 41.84704 | 29.25971 | 20848 ft | 415 kts | 64° |
| 2026-05-07 13:40 | 41.85910 | 29.29511 | 21457 ft | 419 kts | 64° |
| 2026-05-07 13:40 | 41.87112 | 29.33040 | 22044 ft | 423 kts | 64° |
| 2026-05-07 13:41 | 41.88340 | 29.36646 | 22620 ft | 426 kts | 64° |
| 2026-05-07 13:41 | 41.89614 | 29.40250 | 23177 ft | 429 kts | 60° |
| 2026-05-07 13:41 | 41.91125 | 29.43718 | 23718 ft | 431 kts | 55° |
| 2026-05-07 13:41 | 41.92897 | 29.46980 | 24243 ft | 433 kts | 49° |
| 2026-05-07 13:42 | 41.94866 | 29.50047 | 24754 ft | 435 kts | 46° |
| 2026-05-07 13:42 | 41.96900 | 29.53087 | 25246 ft | 439 kts | 46° |
| 2026-05-07 13:42 | 41.98930 | 29.56159 | 25726 ft | 442 kts | 46° |
| 2026-05-07 13:42 | 42.00975 | 29.59283 | 26191 ft | 445 kts | 46° |
| 2026-05-07 13:43 | 42.03005 | 29.62433 | 26636 ft | 449 kts | 49° |
| 2026-05-07 13:43 | 42.04631 | 29.66041 | 27059 ft | 455 kts | 65° |
| 2026-05-07 13:43 | 42.05516 | 29.70149 | 27472 ft | 460 kts | 81° |
| 2026-05-07 13:43 | 42.05699 | 29.74456 | 27882 ft | 463 kts | 91° |
| 2026-05-07 13:44 | 42.05612 | 29.77323 | 28144 ft | 465 kts | 94° |
| 2026-05-07 13:44 | 42.05353 | 29.81674 | 28537 ft | 467 kts | 96° |
| 2026-05-07 13:44 | 42.05026 | 29.86041 | 28949 ft | 469 kts | 96° |
| 2026-05-07 13:44 | 42.04703 | 29.90402 | 29466 ft | 468 kts | 96° |
| 2026-05-07 13:45 | 42.04282 | 29.96148 | 30136 ft | 466 kts | 96° |
| 2026-05-07 13:45 | 42.03967 | 30.00481 | 30619 ft | 465 kts | 96° |
| 2026-05-07 13:45 | 42.03755 | 30.03404 | 30938 ft | 464 kts | 96° |
| 2026-05-07 13:45 | 42.03341 | 30.09123 | 31553 ft | 463 kts | 96° |
| 2026-05-07 13:46 | 42.03130 | 30.12034 | 31859 ft | 463 kts | 96° |
| 2026-05-07 13:46 | 42.02828 | 30.16343 | 32302 ft | 462 kts | 95° |
| 2026-05-07 13:46 | 42.02527 | 30.20638 | 32737 ft | 461 kts | 96° |
| 2026-05-07 13:46 | 42.02217 | 30.24945 | 32962 ft | 464 kts | 96° |
| 2026-05-07 13:47 | 42.01899 | 30.29265 | 32988 ft | 465 kts | 96° |
| 2026-05-07 13:47 | 42.01257 | 30.37819 | 32995 ft | 460 kts | 96° |
| 2026-05-07 13:48 | 42.00607 | 30.46354 | 32997 ft | 459 kts | 96° |
| 2026-05-07 13:48 | 41.99953 | 30.54913 | 32997 ft | 459 kts | 96° |
| 2026-05-07 13:49 | 41.99716 | 30.63492 | 32997 ft | 459 kts | 89° |
| 2026-05-07 13:49 | 41.99872 | 30.72070 | 32997 ft | 459 kts | 89° |
| 2026-05-07 13:50 | 41.99956 | 30.80664 | 32997 ft | 459 kts | 89° |
| 2026-05-07 13:50 | 42.00005 | 30.89247 | 32997 ft | 459 kts | 89° |
| 2026-05-07 13:51 | 42.00067 | 30.97843 | 32996 ft | 459 kts | 87° |
| 2026-05-07 13:51 | 42.00895 | 31.06282 | 32997 ft | 459 kts | 76° |
| 2026-05-07 13:52 | 42.02600 | 31.14548 | 32997 ft | 458 kts | 73° |
| 2026-05-07 13:52 | 42.04377 | 31.22790 | 32997 ft | 458 kts | 73° |
| 2026-05-07 13:53 | 42.06126 | 31.31024 | 32997 ft | 458 kts | 73° |
| 2026-05-07 13:53 | 42.07863 | 31.39276 | 32997 ft | 458 kts | 73° |
| 2026-05-07 13:54 | 42.09592 | 31.47531 | 32997 ft | 458 kts | 73° |
| 2026-05-07 13:54 | 42.11353 | 31.55785 | 32997 ft | 458 kts | 73° |
| 2026-05-07 13:55 | 42.13089 | 31.64041 | 32997 ft | 458 kts | 73° |
| 2026-05-07 13:55 | 42.14811 | 31.72301 | 32997 ft | 458 kts | 73° |
| 2026-05-07 13:56 | 42.16534 | 31.80562 | 32997 ft | 458 kts | 73° |
| 2026-05-07 13:56 | 42.18261 | 31.88843 | 32997 ft | 458 kts | 73° |
| 2026-05-07 13:57 | 42.19945 | 31.97064 | 32997 ft | 458 kts | 73° |
| 2026-05-07 13:57 | 42.21626 | 32.05341 | 32997 ft | 458 kts | 74° |
| 2026-05-07 13:58 | 42.23302 | 32.13629 | 32997 ft | 458 kts | 74° |
| 2026-05-07 13:58 | 42.24985 | 32.21919 | 32997 ft | 458 kts | 73° |
| 2026-05-07 13:59 | 42.26897 | 32.30120 | 32997 ft | 457 kts | 71° |
| 2026-05-07 13:59 | 42.28801 | 32.38317 | 32997 ft | 457 kts | 72° |
| 2026-05-07 14:00 | 42.30675 | 32.46522 | 32997 ft | 457 kts | 72° |
| 2026-05-07 14:00 | 42.32428 | 32.54797 | 32995 ft | 458 kts | 78° |
| 2026-05-07 14:01 | 42.32777 | 32.63374 | 32998 ft | 458 kts | 95° |
| 2026-05-07 14:01 | 42.31918 | 32.71853 | 32997 ft | 458 kts | 100° |
| 2026-05-07 14:02 | 42.30898 | 32.80342 | 32997 ft | 458 kts | 99° |
| 2026-05-07 14:02 | 42.29891 | 32.88840 | 32997 ft | 458 kts | 99° |
| 2026-05-07 14:03 | 42.28888 | 32.97351 | 32997 ft | 458 kts | 99° |
| 2026-05-07 14:03 | 42.27894 | 33.05854 | 32997 ft | 458 kts | 99° |
| 2026-05-07 14:04 | 42.26931 | 33.14355 | 32997 ft | 458 kts | 99° |
| 2026-05-07 14:04 | 42.25948 | 33.22852 | 32997 ft | 458 kts | 99° |
| 2026-05-07 14:05 | 42.24952 | 33.31341 | 32997 ft | 458 kts | 99° |
| 2026-05-07 14:05 | 42.23954 | 33.39827 | 32997 ft | 458 kts | 99° |
| 2026-05-07 14:06 | 42.22964 | 33.48323 | 32997 ft | 458 kts | 99° |
| 2026-05-07 14:06 | 42.21944 | 33.56793 | 32997 ft | 458 kts | 99° |
| 2026-05-07 14:07 | 42.20907 | 33.65276 | 32997 ft | 458 kts | 100° |
| 2026-05-07 14:07 | 42.19865 | 33.73746 | 32997 ft | 458 kts | 100° |
| 2026-05-07 14:08 | 42.18827 | 33.82172 | 32997 ft | 458 kts | 100° |
| 2026-05-07 14:08 | 42.17775 | 33.90632 | 32997 ft | 457 kts | 100° |
| 2026-05-07 14:09 | 42.16730 | 33.98975 | 32992 ft | 440 kts | 100° |
| 2026-05-07 14:09 | 42.16247 | 34.02967 | 32986 ft | 425 kts | 99° |
| 2026-05-07 14:09 | 42.15779 | 34.06832 | 32983 ft | 411 kts | 100° |
| 2026-05-07 14:09 | 42.15317 | 34.10579 | 32980 ft | 398 kts | 100° |
| 2026-05-07 14:10 | 42.14864 | 34.14206 | 32978 ft | 386 kts | 100° |
| 2026-05-07 14:10 | 42.14420 | 34.17720 | 32974 ft | 374 kts | 100° |
| 2026-05-07 14:10 | 42.13986 | 34.21134 | 32979 ft | 369 kts | 100° |
| 2026-05-07 14:11 | 42.13108 | 34.27992 | 32996 ft | 374 kts | 100° |
| 2026-05-07 14:11 | 42.12213 | 34.34953 | 32997 ft | 377 kts | 100° |
| 2026-05-07 14:12 | 42.11318 | 34.41895 | 32997 ft | 376 kts | 100° |
| 2026-05-07 14:12 | 42.10394 | 34.48862 | 33003 ft | 384 kts | 101° |
| 2026-05-07 14:12 | 42.09911 | 34.52402 | 33009 ft | 395 kts | 101° |
| 2026-05-07 14:13 | 42.09402 | 34.56092 | 33012 ft | 406 kts | 101° |
| 2026-05-07 14:13 | 42.08876 | 34.59878 | 33012 ft | 417 kts | 101° |
| 2026-05-07 14:13 | 42.08333 | 34.63763 | 33011 ft | 428 kts | 101° |
| 2026-05-07 14:14 | 42.07201 | 34.71807 | 33007 ft | 447 kts | 101° |
| 2026-05-07 14:14 | 42.06023 | 34.80144 | 33000 ft | 456 kts | 101° |
| 2026-05-07 14:15 | 42.04859 | 34.88496 | 32997 ft | 453 kts | 100° |
| 2026-05-07 14:15 | 42.03756 | 34.96849 | 32997 ft | 454 kts | 101° |
| 2026-05-07 14:16 | 42.02445 | 35.05146 | 32996 ft | 453 kts | 109° |
| 2026-05-07 14:16 | 41.99798 | 35.12782 | 32997 ft | 450 kts | 123° |
| 2026-05-07 14:17 | 41.96306 | 35.19745 | 32997 ft | 449 kts | 127° |
| 2026-05-07 14:17 | 41.92752 | 35.26649 | 32997 ft | 449 kts | 126° |
| 2026-05-07 14:18 | 41.89232 | 35.33517 | 32997 ft | 449 kts | 126° |
| 2026-05-07 14:18 | 41.85694 | 35.40433 | 32997 ft | 449 kts | 126° |
| 2026-05-07 14:19 | 41.82143 | 35.47395 | 32997 ft | 449 kts | 126° |
| 2026-05-07 14:19 | 41.78657 | 35.54287 | 32997 ft | 449 kts | 126° |
| 2026-05-07 14:20 | 41.75134 | 35.61212 | 32997 ft | 449 kts | 126° |
| 2026-05-07 14:20 | 41.71610 | 35.68115 | 32997 ft | 449 kts | 126° |
| 2026-05-07 14:21 | 41.68074 | 35.75018 | 32997 ft | 449 kts | 126° |
| 2026-05-07 14:21 | 41.64535 | 35.81911 | 32997 ft | 449 kts | 126° |
| 2026-05-07 14:22 | 41.60991 | 35.88795 | 32997 ft | 449 kts | 126° |
| 2026-05-07 14:22 | 41.57443 | 35.95671 | 33036 ft | 450 kts | 126° |
| 2026-05-07 14:22 | 41.55655 | 35.99130 | 32607 ft | 452 kts | 126° |
| 2026-05-07 14:23 | 41.53895 | 36.02532 | 32163 ft | 449 kts | 126° |
| 2026-05-07 14:23 | 41.52124 | 36.05948 | 31712 ft | 445 kts | 126° |
| 2026-05-07 14:23 | 41.50369 | 36.09334 | 31260 ft | 441 kts | 127° |
| 2026-05-07 14:23 | 41.48625 | 36.12691 | 30809 ft | 437 kts | 127° |
| 2026-05-07 14:24 | 41.46901 | 36.16009 | 30358 ft | 434 kts | 127° |
| 2026-05-07 14:24 | 41.45188 | 36.19302 | 29906 ft | 430 kts | 127° |
| 2026-05-07 14:24 | 41.43505 | 36.22569 | 29455 ft | 426 kts | 127° |
| 2026-05-07 14:24 | 41.41827 | 36.25805 | 29005 ft | 423 kts | 127° |
| 2026-05-07 14:25 | 41.40153 | 36.29018 | 28553 ft | 420 kts | 127° |
| 2026-05-07 14:25 | 41.38490 | 36.32201 | 28103 ft | 417 kts | 127° |
| 2026-05-07 14:25 | 41.36832 | 36.35367 | 27651 ft | 415 kts | 127° |
| 2026-05-07 14:25 | 41.35187 | 36.38500 | 27201 ft | 412 kts | 127° |
| 2026-05-07 14:26 | 41.33550 | 36.41614 | 26751 ft | 409 kts | 127° |
| 2026-05-07 14:26 | 41.31922 | 36.44708 | 26299 ft | 407 kts | 127° |
| 2026-05-07 14:26 | 41.30326 | 36.47739 | 25854 ft | 404 kts | 127° |
| 2026-05-07 14:26 | 41.28722 | 36.50784 | 25404 ft | 401 kts | 127° |
| 2026-05-07 14:27 | 41.27124 | 36.53816 | 24953 ft | 399 kts | 127° |
| 2026-05-07 14:27 | 41.25535 | 36.56836 | 24502 ft | 397 kts | 127° |
| 2026-05-07 14:27 | 41.23950 | 36.59846 | 24051 ft | 397 kts | 127° |
| 2026-05-07 14:27 | 41.22370 | 36.62846 | 23601 ft | 396 kts | 127° |
| 2026-05-07 14:28 | 41.20794 | 36.65840 | 23151 ft | 394 kts | 127° |
| 2026-05-07 14:28 | 41.19225 | 36.68821 | 22699 ft | 393 kts | 127° |
| 2026-05-07 14:28 | 41.17664 | 36.71786 | 22249 ft | 391 kts | 127° |
| 2026-05-07 14:28 | 41.16110 | 36.74740 | 21798 ft | 389 kts | 127° |
| 2026-05-07 14:29 | 41.14435 | 36.77537 | 21338 ft | 384 kts | 139° |
| 2026-05-07 14:29 | 41.12279 | 36.79546 | 20886 ft | 375 kts | 158° |
| 2026-05-07 14:29 | 41.09820 | 36.80535 | 20435 ft | 366 kts | 176° |
| 2026-05-07 14:29 | 41.07323 | 36.80445 | 19974 ft | 356 kts | 194° |
| 2026-05-07 14:30 | 41.04985 | 36.79475 | 19436 ft | 353 kts | 205° |
| 2026-05-07 14:30 | 41.02700 | 36.78366 | 18868 ft | 355 kts | 202° |
| 2026-05-07 14:30 | 41.00352 | 36.77275 | 18290 ft | 357 kts | 203° |
| 2026-05-07 14:30 | 40.98008 | 36.76186 | 17716 ft | 358 kts | 203° |
| 2026-05-07 14:31 | 40.96449 | 36.75459 | 17334 ft | 359 kts | 203° |
| 2026-05-07 14:31 | 40.93289 | 36.73983 | 16562 ft | 359 kts | 203° |
| 2026-05-07 14:31 | 40.90930 | 36.72879 | 15987 ft | 360 kts | 203° |
| 2026-05-07 14:31 | 40.89370 | 36.72150 | 15606 ft | 360 kts | 203° |
| 2026-05-07 14:32 | 40.87008 | 36.71044 | 15028 ft | 359 kts | 203° |
| 2026-05-07 14:32 | 40.84653 | 36.69942 | 14453 ft | 359 kts | 203° |
| 2026-05-07 14:32 | 40.81718 | 36.68035 | 13681 ft | 352 kts | 220° |
| 2026-05-07 14:32 | 40.80544 | 36.66517 | 13291 ft | 347 kts | 233° |
| 2026-05-07 14:33 | 40.79382 | 36.63770 | 12715 ft | 343 kts | 252° |
| 2026-05-07 14:33 | 40.79000 | 36.60700 | 12141 ft | 340 kts | 270° |
| 2026-05-07 14:33 | 40.79438 | 36.57643 | 11564 ft | 340 kts | 289° |
| 2026-05-07 14:33 | 40.80657 | 36.54996 | 11190 ft | 337 kts | 309° |
| 2026-05-07 14:34 | 40.82481 | 36.53141 | 11109 ft | 328 kts | 329° |
| 2026-05-07 14:34 | 40.84606 | 36.52294 | 11041 ft | 322 kts | 350° |
| 2026-05-07 14:34 | 40.86804 | 36.52518 | 10997 ft | 316 kts | 11° |
| 2026-05-07 14:34 | 40.88785 | 36.53692 | 10999 ft | 308 kts | 27° |
| 2026-05-07 14:35 | 40.90547 | 36.55187 | 10993 ft | 296 kts | 30° |
| 2026-05-07 14:35 | 40.92213 | 36.56696 | 10985 ft | 284 kts | 31° |
| 2026-05-07 14:35 | 40.93807 | 36.58156 | 10978 ft | 272 kts | 30° |
| 2026-05-07 14:35 | 40.95383 | 36.59429 | 10967 ft | 258 kts | 23° |
| 2026-05-07 14:36 | 40.96987 | 36.60366 | 10964 ft | 246 kts | 14° |
| 2026-05-07 14:36 | 40.98618 | 36.60868 | 10965 ft | 236 kts | 1° |
| 2026-05-07 14:36 | 41.00235 | 36.60949 | 10978 ft | 230 kts | 353° |
| 2026-05-07 14:36 | 41.01828 | 36.60811 | 10987 ft | 229 kts | 348° |
| 2026-05-07 14:37 | 41.03402 | 36.60483 | 10997 ft | 230 kts | 344° |
| 2026-05-07 14:37 | 41.06555 | 36.59688 | 10997 ft | 231 kts | 344° |
| 2026-05-07 14:37 | 41.08134 | 36.59297 | 10997 ft | 231 kts | 344° |
| 2026-05-07 14:38 | 41.09710 | 36.58911 | 10997 ft | 231 kts | 344° |
| 2026-05-07 14:38 | 41.11292 | 36.58529 | 10997 ft | 231 kts | 344° |
| 2026-05-07 14:38 | 41.12873 | 36.58149 | 10997 ft | 231 kts | 345° |
| 2026-05-07 14:38 | 41.14456 | 36.57771 | 10997 ft | 231 kts | 345° |
| 2026-05-07 14:39 | 41.16036 | 36.57394 | 10997 ft | 231 kts | 345° |
| 2026-05-07 14:39 | 41.17617 | 36.57016 | 10997 ft | 231 kts | 345° |
| 2026-05-07 14:39 | 41.19187 | 36.56673 | 10997 ft | 231 kts | 345° |
| 2026-05-07 14:39 | 41.20767 | 36.56288 | 10942 ft | 232 kts | 344° |
| 2026-05-07 14:40 | 41.22383 | 36.55911 | 10717 ft | 238 kts | 349° |
| 2026-05-07 14:40 | 41.24025 | 36.56326 | 10473 ft | 248 kts | 21° |
| 2026-05-07 14:40 | 41.25493 | 36.57530 | 10238 ft | 249 kts | 30° |
| 2026-05-07 14:40 | 41.26942 | 36.58846 | 9868 ft | 254 kts | 30° |
| 2026-05-07 14:41 | 41.28418 | 36.60152 | 9584 ft | 252 kts | 25° |
| 2026-05-07 14:41 | 41.30048 | 36.60664 | 9329 ft | 237 kts | 349° |
| 2026-05-07 14:41 | 41.31475 | 36.59829 | 9101 ft | 220 kts | 312° |
| 2026-05-07 14:41 | 41.32124 | 36.58081 | 8877 ft | 210 kts | 275° |
| 2026-05-07 14:42 | 41.32099 | 36.56152 | 8671 ft | 208 kts | 269° |
| 2026-05-07 14:42 | 41.32191 | 36.54252 | 8323 ft | 208 kts | 278° |
| 2026-05-07 14:42 | 41.32635 | 36.52425 | 7950 ft | 210 kts | 293° |
| 2026-05-07 14:42 | 41.33333 | 36.50715 | 7577 ft | 211 kts | 298° |
| 2026-05-07 14:43 | 41.34209 | 36.49137 | 7188 ft | 213 kts | 307° |
| 2026-05-07 14:43 | 41.35209 | 36.47666 | 6788 ft | 215 kts | 309° |
| 2026-05-07 14:43 | 41.36226 | 36.46194 | 6387 ft | 216 kts | 309° |
| 2026-05-07 14:43 | 41.37224 | 36.44703 | 5987 ft | 216 kts | 309° |
| 2026-05-07 14:44 | 41.38205 | 36.43183 | 5586 ft | 216 kts | 309° |
| 2026-05-07 14:44 | 41.39168 | 36.41645 | 5186 ft | 217 kts | 309° |
| 2026-05-07 14:44 | 41.40111 | 36.40103 | 4790 ft | 217 kts | 309° |
| 2026-05-07 14:44 | 41.41060 | 36.38531 | 4389 ft | 218 kts | 309° |
| 2026-05-07 14:45 | 41.42010 | 36.36947 | 3987 ft | 219 kts | 309° |
| 2026-05-07 14:45 | 41.42925 | 36.35334 | 3576 ft | 220 kts | 300° |
| 2026-05-07 14:45 | 41.43194 | 36.33361 | 3152 ft | 220 kts | 259° |
| 2026-05-07 14:45 | 41.42426 | 36.31684 | 3020 ft | 214 kts | 217° |
| 2026-05-07 14:46 | 41.41062 | 36.31127 | 2975 ft | 202 kts | 175° |
| 2026-05-07 14:46 | 41.39888 | 36.31906 | 2942 ft | 186 kts | 129° |
| 2026-05-07 14:46 | 41.39518 | 36.33433 | 2992 ft | 165 kts | 92° |
| 2026-05-07 14:46 | 41.39393 | 36.34864 | 3091 ft | 149 kts | 101° |
| 2026-05-07 14:47 | 41.39087 | 36.36188 | 3163 ft | 155 kts | 111° |
| 2026-05-07 14:47 | 41.38607 | 36.37459 | 3132 ft | 151 kts | 121° |
| 2026-05-07 14:47 | 41.38018 | 36.38602 | 3069 ft | 148 kts | 127° |
| 2026-05-07 14:47 | 41.37386 | 36.39666 | 3026 ft | 146 kts | 128° |
| 2026-05-07 14:48 | 41.36770 | 36.40744 | 3009 ft | 146 kts | 128° |
| 2026-05-07 14:48 | 41.36127 | 36.41768 | 2929 ft | 147 kts | 131° |
| 2026-05-07 14:48 | 41.35433 | 36.42766 | 2733 ft | 146 kts | 133° |
| 2026-05-07 14:48 | 41.34735 | 36.43745 | 2527 ft | 145 kts | 133° |
| 2026-05-07 14:49 | 41.34042 | 36.44715 | 2327 ft | 144 kts | 133° |
| 2026-05-07 14:49 | 41.33347 | 36.45685 | 2126 ft | 144 kts | 134° |
| 2026-05-07 14:49 | 41.32657 | 36.46648 | 1928 ft | 144 kts | 134° |
| 2026-05-07 14:49 | 41.31967 | 36.47609 | 1729 ft | 143 kts | 134° |
| 2026-05-07 14:50 | 41.31280 | 36.48567 | 1532 ft | 143 kts | 134° |
| 2026-05-07 14:50 | 41.30597 | 36.49521 | 1335 ft | 142 kts | 134° |
| 2026-05-07 14:50 | 41.29914 | 36.50473 | 1139 ft | 142 kts | 134° |
| 2026-05-07 14:50 | 41.29233 | 36.51423 | 943 ft | 142 kts | 134° |
| 2026-05-07 14:51 | 41.28554 | 36.52371 | 748 ft | 141 kts | 133° |
| 2026-05-07 14:51 | 41.27880 | 36.53312 | 553 ft | 141 kts | 133° |
| 2026-05-07 14:51 | 41.27205 | 36.54254 | 362 ft | 139 kts | 133° |
| 2026-05-07 14:51 | 41.26532 | 36.55188 | 168 ft | 138 kts | 134° |
| 2026-05-07 14:52 | 41.25880 | 36.56086 | 31 ft | 129 kts | 134° |
| 2026-05-07 14:52 | 41.25392 | 36.56788 | 26 ft | 54 kts | 127° |
| 2026-05-07 14:52 | 41.25335 | 36.56879 | 26 ft | 7 kts | 133° |
| 2026-05-07 14:52 | 41.25280 | 36.56958 | 26 ft | 7 kts | 133° |
| 2026-05-07 14:53 | 41.25233 | 36.56929 | 26 ft | 12 kts | 252° |
| 2026-05-07 14:53 | 41.25263 | 36.56838 | 26 ft | 12 kts | 312° |
| 2026-05-07 14:53 | 41.25322 | 36.56749 | 26 ft | 14 kts | 309° |
| 2026-05-07 14:53 | 41.25367 | 36.56669 | 26 ft | 0 kts | 285° |